Airfield :
LOGIN :

Register | Disclaimer

   EN    FR    IT 

 










Legend :    VFR   Marginal VFR   IFR   Intensive IFR   Very Intensive IFR
Visi :
Ceiling :
>= 8 km
>= 3000ft
5 to 8 km
1000 to 3000 ft
1500m to 5 km
500 to 1000 ft
800 to 1500m
200 to 500 ft
< 800m
< 200 ft
Symbols :   Thunderstorms  Fog  Heavy snow  Heavy precipitations  Wind > 20 kt
SIGMETs :     Misc.  Thunderstorms  Icing  Turbulence  Mountain Waves  Volcanic Ashes






- Airport Elevation : 2595 ft
- IATA code : SLM


LESA - Salamanca Matacan

CURRENT METAR :
  • 180300Z AUTO VRB02KT 9999 -RA NSC 14/13 Q1012

EXPIRED METARs :
  • 180230Z AUTO 13003KT 9999 FEW049 14/13 Q1013
  • 180200Z AUTO VRB02KT 9999 FEW048 14/13 Q1013
  • 180130Z AUTO VRB02KT 9000 FEW046 14/13 Q1013
  • 180100Z AUTO VRB02KT 9999 FEW030 14/13 Q1013
  • 180030Z AUTO 06004KT CAVOK 14/13 Q1013

TAF TAF LESA
Valid from the 18 at 03:00 until the 19 at 03:00 UTC


180200Z 1803/1903 VRB04KT 9999 SCT045 TX26/1816Z TN12/1805Z
TEMPO 1812/1821 18010KT
PROB40 1809/1821 4000 SHRA SCT020TCU
PROB30
TEMPO 1812/1821 VRB15G25KT 3000 TSRA SCT030CB



MET'MAP, your aeronautical weather chart ! - Copyright ORBIFLY December 2007 - Disclaimer

ORBIFLY MET'MAP TEAM :

Programming & Development : Alexandra Zaïnal
Concept & original design : Baudouin d'Aumeries
Assistance for programming : Marc-Olivier Méhu
Technical & hardware support : Manuel Goepfert

Contact : metmap@orbifly.com




SOURCES & CREDITS :

   NOAA